Terminal Aerodrome Forecast
Issued by NWS

Home | Current Version | Previous Version | Text Only | Print | Product List | Glossary Off
Versions: 1 2 3 4 5 6 7 8 9 10 11 12 13 14 15 16 17 18 19 20 21

560
FTUS43 KFGF 050539
TAFBJI
TAF
KBJI 050539Z 0506/0606 26006KT P6SM OVC013
     FM051100 17004KT 3SM BR BKN005
     FM051800 13007KT P6SM BKN008
     FM052100 14006KT P6SM OVC003
     FM060500 23012KT P6SM OVC008=

USA.gov is the U.S. government's official web portal to all federal, state and local government web resources and services.